Time;durP1;ratioP1;P1;durP2;ratioP2;P2;SDS_P1;SDS_P2;PMS_P1;PMS_P2;Temp;Humidity;BMP_temperature;BMP_pressure;BME280_temperature;BME280_humidity;BME280_pressure;Samples;Min_cycle;Max_cycle;Signal;HPM_P1;HPM_P2
2022/12/01 00:01:04;;;;;;;22.65;8.57;;;2.10;99.90;;;;;;5055953;28;20032;-76
2022/12/01 00:03:33;;;;;;;16.10;7.10;;;2.10;99.90;;;;;;5056330;28;20068;-76
2022/12/01 00:06:04;;;;;;;23.95;8.80;;;2.10;99.90;;;;;;5055906;28;20118;-76
2022/12/01 00:08:32;;;;;;;22.70;8.15;;;2.20;99.90;;;;;;5055518;28;20059;-76
2022/12/01 00:11:09;;;;;;;18.48;7.57;;;2.70;99.90;;;;;;5055770;28;20017;-76
2022/12/01 00:13:35;;;;;;;17.38;7.80;;;2.30;99.90;;;;;;5055653;28;20028;-76
2022/12/01 00:16:12;;;;;;;19.55;8.48;;;2.40;99.90;;;;;;5037968;28;20021;-76
2022/12/01 00:18:38;;;;;;;22.88;9.77;;;;;;;;;;5061884;22;20045;-78
2022/12/01 00:21:04;;;;;;;22.73;9.38;;;;;;;;;;5037970;28;20119;-78
2022/12/01 00:23:30;;;;;;;25.40;9.85;;;;;;;;;;5055539;28;20112;-78
2022/12/01 00:26:02;;;;;;;22.02;9.40;;;2.60;99.90;;;;;;5037433;28;20021;-78
2022/12/01 00:28:28;;;;;;;23.50;9.88;;;;;;;;;;5056048;28;20037;-78
2022/12/01 00:30:54;;;;;;;28.65;9.52;;;2.70;99.90;;;;;;5055284;28;20494;-78
2022/12/01 00:33:19;;;;;;;20.70;7.68;;;2.40;99.90;;;;;;5037367;28;20406;-78
2022/12/01 00:35:48;;;;;;;21.38;7.55;;;;;;;;;;5037310;28;20024;-78
2022/12/01 00:38:17;;;;;;;19.50;7.93;;;;;;;;;;5055073;28;20017;-78
2022/12/01 00:40:42;;;;;;;;;;;2.90;99.90;;;;;;5037717;28;20031;-78
2022/12/01 00:43:08;;;;;;;22.55;8.20;;;;;;;;;;5055195;28;19908;-78
2022/12/01 00:45:34;;;;;;;27.80;9.50;;;3.00;99.90;;;;;;5037020;28;20029;-78
2022/12/01 00:48:00;;;;;;;19.55;8.48;;;;;;;;;;5037040;28;20013;-78
2022/12/01 00:50:26;;;;;;;29.38;10.13;;;;;;;;;;5054759;28;20502;-78
2022/12/01 00:52:52;;;;;;;29.00;10.98;;;;;;;;;;5037147;28;20029;-78
2022/12/01 00:55:18;;;;;;;27.23;11.88;;;;;;;;;;5054837;28;20419;-78
2022/12/01 00:57:44;;;;;;;27.55;10.93;;;;;;;;;;5036757;28;20392;-78
2022/12/01 01:00:11;;;;;;;28.67;11.48;;;;;;;;;;5036933;28;20029;-78
2022/12/01 01:02:38;;;;;;;30.45;11.40;;;3.20;99.90;;;;;;5036764;28;20049;-78
2022/12/01 01:05:08;;;;;;;29.13;11.13;;;3.20;99.90;;;;;;5054637;28;20398;-78
2022/12/01 01:07:33;;;;;;;26.30;10.85;;;;;;;;;;5037008;28;20392;-78
2022/12/01 01:09:59;;;;;;;33.03;12.02;;;;;;;;;;5036896;28;20032;-78
2022/12/01 01:12:26;;;;;;;26.27;10.48;;;3.30;99.90;;;;;;5036752;28;20517;-78
2022/12/01 01:14:52;;;;;;;29.02;11.05;;;;;;;;;;5054409;28;20079;-78
2022/12/01 01:17:18;;;;;;;26.08;10.93;;;;;;;;;;5054730;28;20025;-78
2022/12/01 01:19:44;;;;;;;30.52;11.35;;;;;;;;;;5054404;28;20035;-78
2022/12/01 01:22:14;;;;;;;33.80;11.82;;;;;;;;;;5054521;28;20033;-78
2022/12/01 01:24:40;;;;;;;30.15;11.40;;;;;;;;;;5054113;28;20025;-77
2022/12/01 01:27:05;;;;;;;28.17;11.07;;;3.50;99.90;;;;;;5036505;28;20051;-77
2022/12/01 01:29:32;;;;;;;31.77;11.50;;;;;;;;;;5036873;28;20056;-78
2022/12/01 01:31:58;;;;;;;26.95;10.45;;;;;;;;;;5054809;28;20029;-78
2022/12/01 01:34:26;;;;;;;32.60;12.50;;;3.70;99.90;;;;;;5054666;28;20487;-78
2022/12/01 01:36:52;;;;;;;29.92;11.55;;;;;;;;;;5036536;28;20017;-77
2022/12/01 01:39:18;;;;;;;27.40;11.02;;;3.80;99.90;;;;;;5054143;28;20039;-77
2022/12/01 01:41:43;;;;;;;32.50;12.18;;;3.80;99.90;;;;;;5054282;28;20075;-77
2022/12/01 01:44:48;;;;;;;30.63;11.70;;;3.80;99.90;;;;;;5037258;28;20410;-77
2022/12/01 01:47:17;;;;;;;33.67;12.00;;;3.90;99.90;;;;;;5053928;28;20013;-77
2022/12/01 01:49:43;;;;;;;29.33;10.77;;;3.90;99.90;;;;;;5035819;28;20037;-77
2022/12/01 01:52:09;;;;;;;46.70;13.68;;;3.90;99.90;;;;;;5054495;28;20044;-77
2022/12/01 01:54:38;;;;;;;34.70;13.05;;;4.00;99.90;;;;;;5036290;28;20017;-77
2022/12/01 01:57:07;;;;;;;35.05;11.90;;;4.00;99.90;;;;;;5036292;28;20021;-77
2022/12/01 01:59:46;;;;;;;34.00;12.05;;;4.00;99.90;;;;;;5036082;28;20051;-77
2022/12/01 02:02:12;;;;;;;;;;;4.00;99.90;;;;;;5054432;28;20029;-77
2022/12/01 02:04:44;;;;;;;31.45;9.98;;;4.10;99.90;;;;;;5036035;28;19905;-77
2022/12/01 02:07:16;;;;;;;33.22;11.05;;;4.10;99.90;;;;;;5036212;28;20033;-77
2022/12/01 02:09:41;;;;;;;35.35;12.52;;;4.10;99.90;;;;;;5035903;28;20031;-78
2022/12/01 02:12:12;;;;;;;30.83;11.18;;;4.20;99.90;;;;;;5053979;28;20162;-77
2022/12/01 02:15:13;;;;;;;28.13;11.15;;;4.20;99.90;;;;;;5036102;28;20063;-77
2022/12/01 02:18:00;;;;;;;29.33;10.88;;;4.20;99.90;;;;;;4957211;28;20031;-78
2022/12/01 02:21:02;;;;;;;32.58;12.68;;;4.20;99.90;;;;;;5048550;28;20080;-78
2022/12/01 02:23:39;;;;;;;39.38;12.30;;;4.20;99.90;;;;;;5035690;28;20025;-78
2022/12/01 02:26:27;;;;;;;35.70;12.07;;;4.20;99.90;;;;;;5035641;28;20021;-78
2022/12/01 02:29:46;;;;;;;32.83;10.68;;;4.20;99.90;;;;;;5053766;28;20029;-78
2022/12/01 02:32:42;;;;;;;40.70;13.60;;;4.20;99.90;;;;;;4957130;28;20117;-78
2022/12/01 02:35:32;;;;;;;42.20;13.32;;;4.30;99.90;;;;;;4972850;28;20030;-77
2022/12/01 02:38:02;;;;;;;37.67;13.05;;;4.30;99.90;;;;;;5031266;28;20037;-77
2022/12/01 02:40:38;;;;;;;41.50;13.00;;;4.30;99.90;;;;;;5035859;28;20036;-77
2022/12/01 02:43:14;;;;;;;35.22;12.52;;;4.40;99.90;;;;;;5035747;28;20373;-77
2022/12/01 02:45:54;;;;;;;44.58;15.05;;;4.40;99.90;;;;;;5035366;28;20091;-77
2022/12/01 02:48:24;;;;;;;34.53;12.82;;;4.40;99.90;;;;;;5035513;28;20021;-77
2022/12/01 02:50:52;;;;;;;48.30;15.88;;;4.40;99.90;;;;;;5035594;28;20021;-78
2022/12/01 02:53:21;;;;;;;38.10;14.57;;;4.40;99.90;;;;;;5035530;28;20067;-78
2022/12/01 02:55:56;;;;;;;36.50;13.93;;;4.40;99.90;;;;;;5053152;28;20442;-78
2022/12/01 02:58:22;;;;;;;43.78;14.25;;;4.40;99.90;;;;;;5035422;28;20501;-78
2022/12/01 03:01:23;;;;;;;38.55;13.35;;;4.40;99.90;;;;;;5035298;28;20021;-78
2022/12/01 03:04:10;;;;;;;40.88;13.93;;;4.50;99.90;;;;;;5049722;28;20504;-78
2022/12/01 03:07:06;;;;;;;41.22;13.55;;;4.50;99.90;;;;;;5035270;28;20419;-78
2022/12/01 03:10:14;;;;;;;41.42;14.85;;;4.40;99.90;;;;;;5035415;28;20483;-78
2022/12/01 03:13:00;;;;;;;38.27;13.90;;;4.50;99.90;;;;;;5045246;28;20065;-78
2022/12/01 03:15:35;;;;;;;39.95;13.70;;;4.50;99.90;;;;;;5057160;28;20029;-78
2022/12/01 03:18:06;;;;;;;40.13;13.35;;;4.50;99.90;;;;;;5056889;28;20021;-78
2022/12/01 03:20:41;;;;;;;36.83;13.43;;;4.50;99.90;;;;;;5038866;28;20036;-78
2022/12/01 03:23:11;;;;;;;43.13;13.55;;;4.50;99.90;;;;;;5039845;28;20476;-78
2022/12/01 03:25:40;;;;;;;42.28;13.77;;;4.60;99.90;;;;;;5038893;28;20021;-78
2022/12/01 03:28:08;;;;;;;;;;;4.50;99.90;;;;;;5039178;28;20028;-78
2022/12/01 03:30:36;;;;;;;42.65;14.32;;;4.50;99.90;;;;;;5038889;28;19940;-78
2022/12/01 03:33:09;;;;;;;39.45;14.30;;;4.50;99.90;;;;;;5056816;28;20107;-78
2022/12/01 03:35:38;;;;;;;45.22;14.75;;;4.50;99.90;;;;;;5038683;28;20502;-78
2022/12/01 03:38:16;;;;;;;38.80;14.20;;;4.50;99.90;;;;;;5038700;28;20171;-78
2022/12/01 03:40:45;;;;;;;47.90;15.15;;;4.50;99.90;;;;;;5056657;28;20025;-78
2022/12/01 03:43:20;;;;;;;42.75;14.20;;;4.50;99.90;;;;;;5056464;28;20383;-78
2022/12/01 03:46:00;;;;;;;41.95;14.68;;;4.50;99.90;;;;;;5056272;28;20388;-78
2022/12/01 03:48:27;;;;;;;44.25;14.52;;;4.40;99.90;;;;;;5056453;28;20036;-78
2022/12/01 03:51:21;;;;;;;44.40;13.88;;;4.40;99.90;;;;;;5038540;28;20079;-77
2022/12/01 03:53:51;;;;;;;50.05;15.90;;;4.40;99.90;;;;;;5056321;28;20021;-78
2022/12/01 03:56:21;;;;;;;39.28;13.77;;;4.40;99.90;;;;;;5056723;28;20025;-78
2022/12/01 03:58:49;;;;;;;40.65;13.20;;;4.40;99.90;;;;;;5038713;28;20384;-77
2022/12/01 04:01:15;;;;;;;42.78;13.60;;;4.40;99.90;;;;;;5039411;28;20029;-78
2022/12/01 04:03:41;;;;;;;47.65;13.68;;;4.40;99.90;;;;;;5055956;28;20448;-78
2022/12/01 04:06:06;;;;;;;52.17;15.32;;;4.40;99.90;;;;;;5056165;28;20446;-77
2022/12/01 04:08:32;;;;;;;44.42;13.63;;;4.30;99.90;;;;;;5038468;28;20484;-78
2022/12/01 04:10:59;;;;;;;47.78;13.68;;;4.30;99.90;;;;;;5056071;28;20108;-77
2022/12/01 04:13:25;;;;;;;45.80;14.25;;;4.30;99.90;;;;;;5055948;28;20032;-77
2022/12/01 04:15:53;;;;;;;44.72;15.80;;;4.30;99.90;;;;;;5038019;28;20024;-77
2022/12/01 04:18:19;;;;;;;43.05;14.75;;;4.40;99.90;;;;;;5055673;28;20434;-78
2022/12/01 04:20:46;;;;;;;46.42;14.73;;;4.40;99.90;;;;;;5038133;28;20479;-78
2022/12/01 04:23:58;;;;;;;48.30;15.40;;;4.30;99.90;;;;;;5055703;28;20028;-77
2022/12/01 04:26:03;;;;;;;53.80;16.27;;;4.40;99.90;;;;;;5055253;28;20083;-77
2022/12/01 04:28:29;;;;;;;55.75;15.82;;;4.30;99.90;;;;;;5037915;28;20064;-78
2022/12/01 04:30:54;;;;;;;47.33;15.05;;;4.30;99.90;;;;;;5055620;28;20025;-78
2022/12/01 04:33:20;;;;;;;51.83;16.38;;;4.30;99.90;;;;;;5037881;28;20117;-78
2022/12/01 04:35:54;;;;;;;51.03;15.77;;;4.30;99.90;;;;;;5037646;28;20017;-78
2022/12/01 04:38:19;;;;;;;55.17;16.88;;;4.30;99.90;;;;;;5037617;28;20499;-78
2022/12/01 04:40:45;;;;;;;44.05;15.27;;;4.40;99.90;;;;;;5037527;28;20017;-78
2022/12/01 04:43:10;;;;;;;40.70;14.30;;;4.30;99.90;;;;;;5037583;28;20016;-78
2022/12/01 04:45:37;;;;;;;48.33;15.65;;;4.30;99.90;;;;;;5037121;28;20464;-78
2022/12/01 04:48:03;;;;;;;41.58;13.82;;;4.30;99.90;;;;;;5055268;28;20033;-78
2022/12/01 04:50:29;;;;;;;44.58;14.13;;;4.30;99.90;;;;;;5037548;28;20031;-78
2022/12/01 04:52:55;;;;;;;43.08;14.73;;;4.20;99.90;;;;;;5037398;28;20484;-77
2022/12/01 04:55:21;;;;;;;39.90;14.80;;;4.20;99.90;;;;;;5054984;28;20027;-77
2022/12/01 04:57:47;;;;;;;51.00;15.77;;;4.20;99.90;;;;;;5037240;28;20369;-78
2022/12/01 05:00:13;;;;;;;46.38;14.90;;;4.20;99.90;;;;;;5055091;28;20055;-78
2022/12/01 05:02:42;;;;;;;44.88;14.35;;;4.10;99.90;;;;;;5037384;28;20495;-78
2022/12/01 05:05:11;;;;;;;54.88;16.17;;;4.00;99.90;;;;;;5054769;28;20013;-78
2022/12/01 05:07:37;;;;;;;41.50;14.60;;;4.00;99.90;;;;;;5036792;28;20051;-78
2022/12/01 05:10:03;;;;;;;47.08;13.70;;;3.90;99.90;;;;;;5055185;28;20484;-78
2022/12/01 05:12:29;;;;;;;37.92;13.82;;;3.80;99.90;;;;;;5036763;28;20017;-78
2022/12/01 05:14:55;;;;;;;40.85;13.13;;;3.70;99.90;;;;;;5054525;28;20083;-77
2022/12/01 05:17:20;;;;;;;44.72;15.32;;;3.70;99.90;;;;;;5036688;28;20403;-78
2022/12/01 05:22:30;;;;;;;41.50;12.73;;;3.60;99.90;;;;;;5054769;28;20044;-78
2022/12/01 05:24:56;;;;;;;47.92;13.35;;;3.50;99.90;;;;;;5036299;28;20025;-78
2022/12/01 05:27:21;;;;;;;47.05;15.38;;;3.50;99.90;;;;;;5036796;28;20013;-78
2022/12/01 05:29:47;;;;;;;40.17;14.00;;;3.50;99.90;;;;;;5036477;28;20017;-78
2022/12/01 05:32:12;;;;;;;42.15;14.02;;;3.50;99.90;;;;;;5054283;28;20025;-78
2022/12/01 05:34:38;;;;;;;51.95;15.70;;;4.20;99.90;;;;;;5035922;28;20475;-78
2022/12/01 05:37:04;;;;;;;52.10;14.18;;;3.40;99.90;;;;;;5053659;28;20057;-78
2022/12/01 05:39:30;;;;;;;47.75;13.00;;;3.30;99.90;;;;;;5036314;28;20099;-78
2022/12/01 05:41:55;;;;;;;38.80;13.88;;;3.30;99.90;;;;;;5036322;28;20055;-78
2022/12/01 05:44:21;;;;;;;47.88;14.38;;;3.30;99.90;;;;;;5036179;28;20029;-78
2022/12/01 05:46:46;;;;;;;45.90;14.07;;;3.30;99.90;;;;;;5036160;28;20119;-78
2022/12/01 05:49:12;;;;;;;51.10;14.73;;;3.30;99.90;;;;;;5036305;28;20025;-78
2022/12/01 05:51:38;;;;;;;48.53;14.38;;;3.30;99.90;;;;;;5036028;28;20017;-78
2022/12/01 05:54:03;;;;;;;49.95;15.40;;;3.30;99.90;;;;;;5036021;28;20483;-78
2022/12/01 05:56:29;;;;;;;42.97;15.20;;;3.30;99.90;;;;;;5053680;28;20025;-77
2022/12/01 05:58:54;;;;;;;54.05;16.20;;;3.30;99.90;;;;;;5053799;28;20067;-78
2022/12/01 06:01:20;;;;;;;46.83;13.70;;;3.30;99.90;;;;;;5053747;28;20033;-78
2022/12/01 06:03:46;;;;;;;54.30;15.77;;;3.30;99.90;;;;;;5035953;28;20053;-78
2022/12/01 06:06:11;;;;;;;42.47;14.35;;;3.30;99.90;;;;;;5035952;28;20017;-77
2022/12/01 06:08:37;;;;;;;45.63;15.40;;;3.30;99.90;;;;;;5053510;28;20029;-77
2022/12/01 06:11:03;;;;;;;49.25;15.23;;;3.20;99.90;;;;;;5054251;28;20076;-77
2022/12/01 06:13:28;;;;;;;57.47;16.60;;;3.20;99.90;;;;;;5035883;28;20017;-77
2022/12/01 06:15:58;;;;;;;48.53;15.02;;;3.20;99.90;;;;;;5035905;28;20029;-77
2022/12/01 06:18:26;;;;;;;46.53;14.75;;;3.20;99.90;;;;;;5053872;28;20041;-79
2022/12/01 06:20:51;;;;;;;54.50;13.48;;;3.20;99.90;;;;;;5035755;28;20086;-79
2022/12/01 06:23:17;;;;;;;51.97;14.30;;;3.70;99.90;;;;;;5053466;28;20025;-79
2022/12/01 06:25:43;;;;;;;48.53;15.90;;;3.20;99.90;;;;;;5053332;28;20028;-78
2022/12/01 06:28:08;;;;;;;47.65;15.63;;;3.10;99.90;;;;;;5053673;28;20449;-78
2022/12/01 06:30:34;;;;;;;41.53;13.18;;;3.10;99.90;;;;;;5054203;28;20024;-78
2022/12/01 06:33:00;;;;;;;42.78;13.07;;;3.10;99.90;;;;;;5035398;28;20023;-79
2022/12/01 06:35:25;;;;;;;45.33;13.70;;;3.00;99.90;;;;;;5035253;28;20423;-78
2022/12/01 06:37:53;;;;;;;43.58;14.38;;;2.90;99.90;;;;;;5054287;28;20026;-78
2022/12/01 06:40:19;;;;;;;44.60;13.48;;;2.90;99.90;;;;;;5035659;28;20110;-78
2022/12/01 06:42:44;;;;;;;42.88;13.40;;;2.80;99.90;;;;;;5035359;28;20436;-78
2022/12/01 06:45:10;;;;;;;50.00;14.55;;;2.80;99.90;;;;;;5035540;28;20029;-79
2022/12/01 06:47:36;;;;;;;40.60;13.00;;;2.70;99.90;;;;;;5056299;28;20013;-78
2022/12/01 06:50:04;;;;;;;51.95;14.10;;;2.70;99.90;;;;;;5039361;28;20032;-78
2022/12/01 06:52:29;;;;;;;46.72;13.68;;;2.60;99.90;;;;;;5039709;28;20040;-78
2022/12/01 06:54:55;;;;;;;53.47;14.07;;;2.50;99.90;;;;;;5057892;28;20067;-78
2022/12/01 06:57:21;;;;;;;59.60;15.45;;;2.50;99.90;;;;;;5039418;28;20021;-78
2022/12/01 06:59:46;;;;;;;42.67;13.68;;;2.50;99.90;;;;;;5039401;28;20431;-78
2022/12/01 07:02:12;;;;;;;43.10;13.35;;;2.50;99.90;;;;;;5039490;28;20037;-78
2022/12/01 07:04:37;;;;;;;42.65;13.82;;;2.40;99.90;;;;;;5057434;28;20058;-77
2022/12/01 07:07:04;;;;;;;38.83;12.00;;;2.40;99.90;;;;;;5022836;28;20488;-78
2022/12/01 07:09:30;;;;;;;45.15;13.25;;;2.40;99.90;;;;;;5056908;28;20024;-77
2022/12/01 07:11:55;;;;;;;35.00;11.50;;;2.30;99.90;;;;;;5057152;28;20021;-78
2022/12/01 07:14:23;;;;;;;43.78;12.60;;;2.20;99.90;;;;;;5057218;28;20028;-77
2022/12/01 07:16:49;;;;;;;33.25;11.50;;;2.20;99.90;;;;;;5056849;28;20048;-78
2022/12/01 07:19:15;;;;;;;39.72;12.90;;;2.10;99.90;;;;;;5039148;28;20037;-78
2022/12/01 07:21:40;;;;;;;43.33;12.55;;;2.10;99.90;;;;;;5057084;28;20029;-78
2022/12/01 07:24:06;;;;;;;41.08;14.65;;;2.10;99.90;;;;;;5039004;28;20025;-78
2022/12/01 07:26:32;;;;;;;42.67;13.40;;;2.10;99.90;;;;;;5039610;28;20476;-78
2022/12/01 07:28:58;;;;;;;43.63;14.75;;;2.10;99.90;;;;;;5056780;28;20112;-78
2022/12/01 07:31:23;;;;;;;49.20;14.57;;;2.10;99.90;;;;;;5038797;28;20025;-78
2022/12/01 07:33:49;;;;;;;52.15;15.63;;;2.00;99.90;;;;;;5039018;28;20025;-78
2022/12/01 07:36:14;;;;;;;46.97;13.63;;;2.10;99.90;;;;;;5056719;28;20017;-78
2022/12/01 07:38:40;;;;;;;53.60;14.60;;;2.00;99.90;;;;;;5056659;28;20476;-78
2022/12/01 07:41:14;;;;;;;54.78;15.18;;;2.10;99.90;;;;;;5038685;28;20380;-78
2022/12/01 07:43:41;;;;;;;49.75;15.95;;;2.10;99.90;;;;;;5056870;28;20071;-78
2022/12/01 07:46:22;;;;;;;57.47;16.02;;;2.20;99.90;;;;;;5038247;28;20029;-78
2022/12/01 07:48:47;;;;;;;65.25;16.92;;;2.20;99.90;;;;;;5039198;28;20048;-77
2022/12/01 07:51:15;;;;;;;46.80;15.00;;;2.30;99.90;;;;;;5056671;28;20020;-77
2022/12/01 07:53:42;;;;;;;66.60;17.67;;;2.30;99.90;;;;;;5056677;28;20044;-78
2022/12/01 07:56:08;;;;;;;59.17;16.00;;;2.40;99.90;;;;;;5056439;28;20028;-78
2022/12/01 07:58:33;;;;;;;54.63;17.10;;;2.50;99.90;;;;;;5055304;28;20025;-77
2022/12/01 08:01:05;;;;;;;58.00;17.55;;;2.50;99.90;;;;;;5038574;28;20057;-78
2022/12/01 08:03:31;;;;;;;63.88;16.55;;;2.60;99.90;;;;;;5056219;28;20044;-78
2022/12/01 08:05:58;;;;;;;63.00;16.65;;;2.60;99.90;;;;;;5056002;28;20492;-78
2022/12/01 08:08:25;;;;;;;53.45;16.75;;;2.80;99.90;;;;;;5038688;28;20110;-78
2022/12/01 08:10:51;;;;;;;56.47;16.17;;;2.70;99.90;;;;;;5055987;28;20052;-78
2022/12/01 08:13:17;;;;;;;54.17;15.00;;;2.60;99.90;;;;;;5055982;28;20075;-78
2022/12/01 08:15:43;;;;;;;58.70;16.63;;;2.70;99.90;;;;;;5038114;28;20021;-78
2022/12/01 08:18:08;;;;;;;55.75;17.52;;;2.70;99.90;;;;;;5037878;28;20033;-78
2022/12/01 08:20:34;;;;;;;53.70;16.42;;;2.70;99.90;;;;;;5038130;28;20108;-78
2022/12/01 08:23:00;;;;;;;50.45;16.50;;;2.80;99.90;;;;;;5055840;28;20025;-78
2022/12/01 08:25:27;;;;;;;67.55;18.35;;;2.70;99.90;;;;;;5055532;28;20059;-78
2022/12/01 08:27:52;;;;;;;63.22;18.48;;;2.80;99.90;;;;;;5037945;28;20029;-78
2022/12/01 08:30:18;;;;;;;62.40;18.67;;;2.80;99.90;;;;;;5037764;28;20428;-78
2022/12/01 08:32:44;;;;;;;69.80;18.13;;;2.90;99.90;;;;;;5037585;28;20046;-78
2022/12/01 08:35:09;;;;;;;62.40;18.30;;;3.00;99.90;;;;;;5055829;28;20533;-78
2022/12/01 08:37:35;;;;;;;64.88;18.08;;;3.10;99.90;;;;;;5037602;28;20025;-77
2022/12/01 08:40:01;;;;;;;65.32;19.40;;;3.30;99.90;;;;;;5055473;28;20025;-78
2022/12/01 08:42:26;;;;;;;56.40;18.13;;;3.40;99.90;;;;;;5037665;28;20055;-78
2022/12/01 08:44:52;;;;;;;68.05;19.88;;;3.50;99.90;;;;;;5056005;28;20031;-78
2022/12/01 08:47:17;;;;;;;64.10;17.73;;;3.50;99.90;;;;;;5037314;28;20032;-78
2022/12/01 08:49:43;;;;;;;67.55;19.17;;;3.60;99.90;;;;;;5037366;28;20025;-78
2022/12/01 08:52:09;;;;;;;59.03;18.42;;;;;;;;;;5037122;28;20031;-78
2022/12/01 08:54:34;;;;;;;67.10;16.63;;;3.70;99.90;;;;;;5055270;28;20106;-78
2022/12/01 08:57:00;;;;;;;62.40;16.95;;;3.70;99.90;;;;;;5036813;28;20063;-78
2022/12/01 08:59:26;;;;;;;66.57;17.65;;;3.80;99.90;;;;;;5036845;28;20068;-78
2022/12/01 09:01:51;;;;;;;64.35;18.30;;;3.80;99.90;;;;;;5055237;28;20582;-78
2022/12/01 09:04:18;;;;;;;58.90;18.05;;;3.90;99.90;;;;;;5055049;28;20021;-78
2022/12/01 09:06:46;;;;;;;63.47;18.42;;;3.90;99.90;;;;;;5054886;28;20021;-78
2022/12/01 09:09:15;;;;;;;63.70;17.00;;;3.90;99.90;;;;;;5036534;28;20025;-78
2022/12/01 09:11:44;;;;;;;54.70;16.65;;;3.90;99.90;;;;;;5036673;28;20024;-78
2022/12/01 09:14:11;;;;;;;61.00;17.40;;;3.90;99.90;;;;;;5036809;28;20032;-78
2022/12/01 09:16:37;;;;;;;58.85;16.98;;;4.00;99.90;;;;;;5054505;28;20017;-78
2022/12/01 09:19:04;;;;;;;60.95;17.52;;;4.00;99.90;;;;;;5037010;28;20400;-78
2022/12/01 09:21:31;;;;;;;58.38;18.40;;;4.10;99.90;;;;;;5055197;28;20025;-78
2022/12/01 09:23:58;;;;;;;60.28;19.17;;;4.80;99.90;;;;;;5037000;28;20078;-78
2022/12/01 09:26:24;;;;;;;64.05;18.88;;;4.10;99.90;;;;;;5037250;28;20112;-78
2022/12/01 09:28:56;;;;;;;59.40;18.98;;;4.20;99.90;;;;;;5036655;28;20060;-78
2022/12/01 09:31:24;;;;;;;59.17;19.08;;;4.20;99.90;;;;;;5054611;28;20017;-78
2022/12/01 09:33:55;;;;;;;62.83;19.02;;;4.20;99.90;;;;;;5054328;28;20124;-78
2022/12/01 09:36:21;;;;;;;62.15;17.63;;;4.30;99.90;;;;;;5054366;28;20040;-78
2022/12/01 09:38:46;;;;;;;64.50;19.45;;;4.40;99.90;;;;;;5036218;28;20060;-78
2022/12/01 09:41:21;;;;;;;61.03;19.83;;;4.50;99.90;;;;;;5054162;28;20021;-78
2022/12/01 09:44:09;;;;;;;56.10;18.60;;;4.60;99.90;;;;;;5054487;28;20068;-78
2022/12/01 09:46:40;;;;;;;65.95;18.48;;;4.70;99.90;;;;;;5036167;28;20031;-78
2022/12/01 09:49:16;;;;;;;59.42;17.90;;;4.80;99.90;;;;;;5054013;28;20392;-78
2022/12/01 09:51:41;;;;;;;65.13;19.45;;;4.90;99.90;;;;;;5036345;28;20027;-77
2022/12/01 09:54:10;;;;;;;63.45;19.85;;;5.00;99.90;;;;;;5054181;28;20099;-78
2022/12/01 09:56:46;;;;;;;59.28;18.60;;;5.00;99.90;;;;;;5054071;28;20027;-78
2022/12/01 09:59:34;;;;;;;63.63;18.70;;;5.10;99.90;;;;;;5054170;28;20025;-78
2022/12/01 10:02:02;;;;;;;61.65;19.40;;;5.20;99.90;;;;;;5054736;28;20021;-78
2022/12/01 10:04:38;;;;;;;62.95;20.48;;;5.20;99.90;;;;;;5054481;28;20029;-78
2022/12/01 10:07:18;;;;;;;55.22;19.35;;;5.30;99.90;;;;;;5054185;28;20025;-78
2022/12/01 10:09:54;;;;;;;68.75;19.77;;;5.40;99.90;;;;;;5054055;28;20082;-78
2022/12/01 10:12:26;;;;;;;58.58;19.20;;;5.50;99.90;;;;;;5036164;28;20020;-78
2022/12/01 10:14:53;;;;;;;61.80;19.52;;;5.70;99.90;;;;;;5036082;28;20036;-78
2022/12/01 10:17:40;;;;;;;61.78;19.17;;;5.70;99.90;;;;;;5036039;28;20017;-78
2022/12/01 10:20:17;;;;;;;69.30;19.00;;;5.80;99.90;;;;;;5035801;28;20124;-78
2022/12/01 10:22:46;;;;;;;68.38;21.02;;;5.90;99.90;;;;;;5053657;28;20032;-78
2022/12/01 10:25:22;;;;;;;68.28;20.25;;;5.90;99.90;;;;;;5053608;28;20025;-78
2022/12/01 10:27:57;;;;;;;56.35;19.10;;;5.90;99.90;;;;;;5053811;28;20045;-78
2022/12/01 10:30:23;;;;;;;57.95;19.42;;;6.00;99.90;;;;;;5036020;28;20498;-78
2022/12/01 10:33:25;;;;;;;60.55;19.48;;;6.00;99.90;;;;;;5053900;28;20383;-78
2022/12/01 10:35:51;;;;;;;53.75;19.38;;;6.10;99.90;;;;;;5053781;28;20032;-78
2022/12/01 10:38:29;;;;;;;66.72;21.13;;;6.10;99.90;;;;;;5053671;28;20017;-78
2022/12/01 10:40:58;;;;;;;61.58;20.77;;;6.20;99.90;;;;;;5053661;28;20479;-78
2022/12/01 10:43:33;;;;;;;62.47;19.42;;;7.50;99.90;;;;;;5053737;28;20009;-78
2022/12/01 10:46:16;;;;;;;58.03;19.65;;;6.30;99.90;;;;;;5035815;28;20047;-77
2022/12/01 10:48:55;;;;;;;54.92;19.10;;;6.80;99.90;;;;;;5035683;28;20124;-78
2022/12/01 10:51:22;;;;;;;54.78;18.17;;;6.30;99.90;;;;;;5035670;28;20033;-78
2022/12/01 10:53:48;;;;;;;55.25;19.20;;;6.20;99.90;;;;;;5035791;28;20499;-78
2022/12/01 10:56:19;;;;;;;54.88;18.63;;;6.30;99.90;;;;;;5035555;28;20024;-78
2022/12/01 10:58:47;;;;;;;59.65;19.42;;;7.20;99.90;;;;;;5053585;28;20025;-77
2022/12/01 11:01:30;;;;;;;56.10;17.73;;;6.20;99.90;;;;;;5035839;28;20025;-78
2022/12/01 11:04:00;;;;;;;63.30;19.17;;;6.10;99.90;;;;;;5053601;28;20025;-78
2022/12/01 11:06:29;;;;;;;61.30;20.65;;;6.20;99.90;;;;;;5035733;28;20036;-78
2022/12/01 11:09:01;;;;;;;58.95;18.42;;;6.20;99.90;;;;;;5035956;28;20031;-77
2022/12/01 11:11:34;;;;;;;56.58;18.75;;;6.40;99.90;;;;;;5053512;28;20028;-77
2022/12/01 11:14:20;;;;;;;59.00;19.15;;;6.50;99.90;;;;;;5036096;28;20107;-77
2022/12/01 11:16:49;;;;;;;58.45;18.60;;;6.60;99.90;;;;;;5035966;28;20074;-77
2022/12/01 11:19:33;;;;;;;;;;;6.80;99.90;;;;;;5036024;28;20476;-77
2022/12/01 11:22:02;;;;;;;58.58;18.77;;;6.90;99.90;;;;;;5035839;28;19932;-77
2022/12/01 11:24:41;;;;;;;57.83;18.20;;;7.00;99.90;;;;;;5053573;28;20021;-74
2022/12/01 11:27:29;;;;;;;;;;;7.20;99.90;;;;;;5054768;28;20055;-76
2022/12/01 11:29:56;;;;;;;;;;;7.30;99.90;;;;;;5043444;28;19952;-74
2022/12/01 11:32:29;;;;;;;50.42;15.88;;;7.40;99.90;;;;;;5035941;28;19905;-74
2022/12/01 11:34:59;;;;;;;53.55;18.25;;;7.40;99.90;;;;;;5056253;28;20032;-74
2022/12/01 11:37:41;;;;;;;52.47;16.10;;;7.40;99.90;;;;;;5039258;28;20017;-74
2022/12/01 11:40:19;;;;;;;46.25;17.05;;;7.40;99.90;;;;;;5039521;28;20029;-74
2022/12/01 11:42:50;;;;;;;46.33;16.90;;;7.40;99.90;;;;;;5057801;28;20476;-74
2022/12/01 11:45:40;;;;;;;48.70;17.55;;;7.30;99.90;;;;;;5056770;28;20045;-74
2022/12/01 11:48:14;;;;;;;53.92;16.80;;;7.30;99.90;;;;;;5039279;28;20021;-74
2022/12/01 11:50:42;;;;;;;46.47;16.00;;;7.30;99.90;;;;;;5039112;28;20039;-74
2022/12/01 11:53:35;;;;;;;49.30;16.83;;;7.20;99.90;;;;;;5038936;28;20025;-74
2022/12/01 11:56:22;;;;;;;43.97;15.45;;;7.30;99.90;;;;;;5038920;28;20028;-74
2022/12/01 11:58:53;;;;;;;44.70;16.23;;;7.30;99.90;;;;;;5038873;28;20112;-74
2022/12/01 12:01:58;;;;;;;55.22;18.42;;;7.40;99.90;;;;;;5056525;28;20048;-74
2022/12/01 12:04:41;;;;;;;47.17;15.75;;;7.40;99.90;;;;;;5026675;28;20515;-74
2022/12/01 12:07:37;;;;;;;55.45;17.55;;;7.30;99.90;;;;;;5038368;28;20416;-74
2022/12/01 12:10:15;;;;;;;44.38;16.90;;;7.20;99.90;;;;;;5038835;28;20032;-74
2022/12/01 12:12:52;;;;;;;42.17;15.30;;;7.20;99.90;;;;;;5056664;28;20048;-74
2022/12/01 12:15:28;;;;;;;44.95;14.98;;;7.40;99.90;;;;;;5038580;28;20025;-74
2022/12/01 12:20:41;;;;;;;43.05;15.68;;;7.80;99.90;;;;;;5074635;28;20402;-76
2022/12/01 12:23:28;;;;;;;39.13;15.60;;;8.00;99.90;;;;;;5076704;28;20028;-76
2022/12/01 12:26:05;;;;;;;41.58;15.63;;;8.10;99.90;;;;;;5076136;28;20032;-77
2022/12/01 12:28:34;;;;;;;37.28;14.80;;;8.20;99.90;;;;;;5058867;28;20021;-76
2022/12/01 12:31:25;;;;;;;38.95;14.80;;;8.30;99.90;;;;;;5077433;28;20070;-76
2022/12/01 12:34:22;;;;;;;41.13;15.25;;;8.50;99.90;;;;;;5077285;28;20017;-76
2022/12/01 12:37:00;;;;;;;38.80;14.00;;;8.70;99.90;;;;;;5022133;28;20063;-76
2022/12/01 12:39:40;;;;;;;31.60;13.27;;;8.90;99.90;;;;;;5076126;28;20055;-76
2022/12/01 12:42:41;;;;;;;34.75;14.55;;;8.80;99.90;;;;;;5075891;28;20024;-76
2022/12/01 12:45:25;;;;;;;43.22;15.30;;;8.60;99.90;;;;;;5071799;28;20462;-74
2022/12/01 12:47:50;;;;;;;34.75;14.55;;;8.50;99.90;;;;;;5075306;28;20017;-74
2022/12/01 12:50:15;;;;;;;37.63;14.20;;;8.50;99.90;;;;;;5075655;28;20032;-74
2022/12/01 12:52:46;;;;;;;41.05;15.20;;;8.50;99.90;;;;;;5057644;28;20020;-74
2022/12/01 12:55:38;;;;;;;34.75;14.57;;;8.60;99.90;;;;;;5075882;28;20021;-75
2022/12/01 12:58:17;;;;;;;37.45;14.55;;;8.70;99.90;;;;;;5074874;28;20403;-74
2022/12/01 13:00:49;;;;;;;;;;;8.70;99.90;;;;;;5076124;28;20031;-74
2022/12/01 13:03:46;;;;;;;36.45;14.25;;;8.50;99.90;;;;;;5057155;28;19904;-75
2022/12/01 13:06:44;;;;;;;37.80;13.82;;;8.20;99.90;;;;;;5056700;28;20016;-75
2022/12/01 13:09:44;;;;;;;41.75;13.32;;;7.90;99.90;;;;;;5024385;28;20044;-75
2022/12/01 13:12:25;;;;;;;37.72;14.40;;;7.70;99.90;;;;;;5057648;28;20107;-75